Time;durP1;ratioP1;P1;durP2;ratioP2;P2;SDS_P1;SDS_P2;PMS_P1;PMS_P2;Temp;Humidity;BMP_temperature;BMP_pressure;BME280_temperature;BME280_humidity;BME280_pressure;Samples;Min_cycle;Max_cycle;Signal;HPM_P1;HPM_P2
2021/03/25 00:00:43;;;;;;;;;;;;;;;;;;;;;
2021/03/25 00:03:22;;;;;;;34.28;15.80;;;;;;;-1.10;55.55;93899.44;4938599;28;20496;-84
2021/03/25 00:06:03;;;;;;;33.50;19.00;;;;;;;-1.49;55.62;93843.59;4978605;28;20503;-85
2021/03/25 00:08:28;;;;;;;33.78;20.73;;;;;;;-1.40;56.15;93871.59;4971140;28;20500;-84
2021/03/25 00:10:56;;;;;;;31.73;17.10;;;;;;;-1.27;56.31;93893.25;4976514;28;20046;-84
2021/03/25 00:13:40;;;;;;;28.98;17.35;;;;;;;-1.60;56.52;93826.94;4962002;28;21065;-84
2021/03/25 00:16:08;;;;;;;34.25;16.60;;;;;;;-1.64;56.33;93825.78;4976748;28;20464;-84
2021/03/25 00:18:35;;;;;;;21.27;13.07;;;;;;;-1.38;56.25;93861.84;4973011;28;20372;-83
2021/03/25 00:21:01;;;;;;;28.52;14.25;;;;;;;-1.36;57.10;93890.91;4987477;28;20136;-84
2021/03/25 00:23:26;;;;;;;20.77;13.90;;;;;;;-1.56;57.59;93885.09;4976213;28;20472;-84
2021/03/25 00:25:52;;;;;;;28.05;14.48;;;;;;;-1.52;57.60;93885.50;4989273;28;20037;-84
2021/03/25 00:28:20;;;;;;;22.95;15.45;;;;;;;-1.64;57.50;93856.06;4990004;28;20053;-84
2021/03/25 00:30:46;;;;;;;20.23;14.38;;;;;;;-1.55;57.40;93893.66;4973913;28;20037;-84
2021/03/25 00:33:14;;;;;;;25.55;14.45;;;;;;;-1.90;57.66;93855.28;4965324;28;20065;-84
2021/03/25 00:35:40;;;;;;;28.33;15.65;;;;;;;-1.67;57.53;93875.44;4993934;28;20273;-84
2021/03/25 00:38:12;;;;;;;22.30;14.25;;;;;;;-1.77;57.75;93862.97;4977432;28;20144;-83
2021/03/25 00:40:38;;;;;;;19.77;14.30;;;;;;;-1.74;58.21;93895.41;4990395;28;20030;-84
2021/03/25 00:43:06;;;;;;;17.90;10.43;;;;;;;-1.62;57.97;93890.34;4993314;28;20081;-84
2021/03/25 00:45:36;;;;;;;10.75;7.68;;;;;;;-1.97;57.92;93840.81;4991120;28;20056;-84
2021/03/25 00:48:05;;;;;;;9.32;5.97;;;;;;;-1.78;58.08;93870.94;4986232;28;20040;-84
2021/03/25 00:50:35;;;;;;;8.30;5.32;;;;;;;-1.73;58.02;93885.84;4994879;28;20112;-84
2021/03/25 00:53:01;;;;;;;6.47;4.72;;;;;;;-1.81;57.97;93892.84;4988546;28;20046;-84
2021/03/25 00:55:28;;;;;;;6.90;4.88;;;;;;;-2.12;57.96;93851.47;4974156;28;20049;-84
2021/03/25 00:57:54;;;;;;;8.68;5.97;;;;;;;-1.93;57.40;93867.84;4986341;28;20026;-84
2021/03/25 01:00:30;;;;;;;4.97;4.38;;;;;;;-2.13;56.96;93836.13;4987428;28;20096;-83
2021/03/25 01:02:56;;;;;;;6.03;4.10;;;;;;;-1.96;56.67;93863.09;4969576;28;20026;-83
2021/03/25 01:05:23;;;;;;;5.25;4.25;;;;;;;-1.93;56.47;93868.66;4955582;28;20053;-84
2021/03/25 01:08:29;;;;;;;7.03;4.13;;;;;;;-1.70;55.00;93864.69;4964134;28;21008;-84
2021/03/25 01:11:24;;;;;;;5.32;3.60;;;;;;;-1.64;54.73;93876.81;4972434;28;20650;-84
2021/03/25 01:13:59;;;;;;;7.20;4.55;;;;;;;-1.52;53.90;93870.72;4987997;28;20884;-84
2021/03/25 01:16:36;;;;;;;4.03;3.63;;;;;;;-1.46;53.91;93872.44;4953334;28;20057;-84
2021/03/25 01:19:05;;;;;;;5.07;4.03;;;;;;;-1.36;53.39;93859.81;4928310;28;20057;-85
2021/03/25 01:21:31;;;;;;;4.75;3.70;;;;;;;-1.29;53.68;93866.72;4969081;28;20041;-84
2021/03/25 01:24:02;;;;;;;5.00;4.45;;;;;;;-1.44;54.05;93836.75;4947077;28;20400;-85
2021/03/25 01:26:28;;;;;;;4.53;3.83;;;;;;;-1.37;53.56;93853.03;4949444;28;20057;-84
2021/03/25 01:28:59;;;;;;;5.43;4.07;;;;;;;-1.50;53.18;93821.25;4978740;28;20041;-84
2021/03/25 01:31:29;;;;;;;6.15;4.47;;;;;;;-1.42;53.22;93829.53;4981372;28;20100;-84
2021/03/25 01:33:58;;;;;;;5.88;4.40;;;;;;;-1.47;53.03;93816.47;4951965;28;20057;-85
2021/03/25 01:36:24;;;;;;;6.05;5.03;;;;;;;-1.44;52.55;93810.03;4962881;28;20033;-84
2021/03/25 01:38:50;;;;;;;5.05;4.55;;;;;;;-1.15;52.15;93844.84;4981515;28;20552;-83
2021/03/25 01:41:16;;;;;;;4.35;3.95;;;;;;;-1.33;52.38;93828.28;4985787;28;20504;-85
2021/03/25 01:43:59;;;;;;;4.88;3.80;;;;;;;-1.42;52.91;93828.78;4969237;28;21418;-84
2021/03/25 01:46:34;;;;;;;5.78;4.43;;;;;;;-1.60;52.86;93811.38;4973507;28;20050;-84
2021/03/25 01:49:11;;;;;;;9.60;6.68;;;;;;;-1.37;53.56;93847.06;4950359;28;20605;-85
2021/03/25 01:51:46;;;;;;;10.13;7.72;;;;;;;-1.34;53.67;93862.97;4921497;28;20117;-85
2021/03/25 01:54:17;;;;;;;7.70;6.57;;;;;;;-1.35;54.60;93865.78;4931531;28;20529;-84
2021/03/25 01:56:45;;;;;;;12.77;7.65;;;;;;;-1.41;54.26;93870.00;4984181;28;20025;-83
2021/03/25 01:59:32;;;;;;;15.65;8.73;;;;;;;-1.46;54.55;93871.66;4983085;28;20065;-83
2021/03/25 02:02:29;;;;;;;12.73;7.68;;;;;;;-1.39;55.16;93877.59;4965563;28;20034;-84
2021/03/25 02:05:06;;;;;;;11.27;8.15;;;;;;;-1.63;55.19;93853.28;4978966;28;20038;-85
2021/03/25 02:07:49;;;;;;;9.48;7.25;;;;;;;-1.41;55.52;93882.97;4972177;28;20049;-84
2021/03/25 02:10:29;;;;;;;14.38;7.63;;;;;;;-1.73;55.37;93842.59;4985615;28;20092;-84
2021/03/25 02:13:24;;;;;;;9.90;7.55;;;;;;;-1.47;56.01;93893.41;4983500;28;20125;-83
2021/03/25 02:16:20;;;;;;;15.80;11.35;;;;;;;-1.64;56.03;93898.31;4973451;28;20562;-85
2021/03/25 02:19:13;;;;;;;15.57;8.95;;;;;;;-1.55;56.06;93902.25;4983275;28;20536;-84
2021/03/25 02:22:10;;;;;;;11.23;8.77;;;;;;;-1.68;56.56;93902.34;4973288;28;20051;-84
2021/03/25 02:24:43;;;;;;;14.88;10.50;;;;;;;-1.91;56.73;93884.00;4978325;28;20173;-83
2021/03/25 02:27:30;;;;;;;19.48;12.73;;;;;;;-1.87;56.96;93904.09;4978982;28;20046;-84
2021/03/25 02:30:05;;;;;;;16.00;7.55;;;;;;;-1.77;57.29;93913.97;4994198;28;20765;-83
2021/03/25 02:32:41;;;;;;;11.65;8.25;;;;;;;-1.81;57.24;93915.41;4979584;28;20030;-84
2021/03/25 02:35:16;;;;;;;29.48;11.05;;;;;;;-1.91;57.50;93892.56;4976291;28;20045;-84
2021/03/25 02:37:46;;;;;;;18.90;11.05;;;;;;;-1.73;57.59;93904.78;4979786;28;20404;-84
2021/03/25 02:40:16;;;;;;;8.27;5.05;;;;;;;-1.69;56.71;93905.94;4994792;28;20456;-84
2021/03/25 02:43:07;;;;;;;6.25;5.00;;;;;;;-1.60;55.86;93915.03;4981148;28;20050;-84
2021/03/25 02:45:38;;;;;;;5.38;4.22;;;;;;;-1.46;55.15;93913.91;4985497;28;20057;-84
2021/03/25 02:48:18;;;;;;;8.35;4.53;;;;;;;-1.32;54.58;93912.03;4973828;28;20026;-85
2021/03/25 02:51:11;;;;;;;6.70;4.10;;;;;;;-1.14;54.38;93908.66;4969721;28;20029;-85
2021/03/25 02:53:42;;;;;;;5.10;4.30;;;;;;;-1.37;54.17;93865.97;4993254;28;20520;-84
2021/03/25 02:56:19;;;;;;;8.07;5.25;;;;;;;-1.18;53.83;93886.78;4987357;28;20046;-85
2021/03/25 02:58:47;;;;;;;8.57;5.35;;;;;;;-0.89;53.46;93917.22;4952353;28;20137;-85
2021/03/25 03:01:16;;;;;;;7.38;5.32;;;;;;;-0.88;53.35;93908.41;4991416;28;20058;-84
2021/03/25 03:03:50;;;;;;;6.45;4.97;;;;;;;-0.84;52.84;93898.41;4978425;28;20050;-85
2021/03/25 03:06:22;;;;;;;7.00;4.20;;;;;;;-0.80;52.93;93877.00;4992023;28;20044;-85
2021/03/25 03:08:50;;;;;;;5.72;4.10;;;;;;;-0.59;52.71;93910.31;4978047;28;20041;-85
2021/03/25 03:11:39;;;;;;;5.63;4.13;;;;;;;-0.36;52.45;93937.38;4975451;28;20504;-85
2021/03/25 03:14:12;;;;;;;5.85;4.55;;;;;;;-0.35;52.22;93916.41;4983979;28;20077;-86
2021/03/25 03:16:49;;;;;;;5.50;4.30;;;;;;;-0.44;52.36;93900.31;4966378;28;20045;-86
2021/03/25 03:19:39;;;;;;;6.97;5.10;;;;;;;-0.24;52.48;93926.03;4966189;28;20096;-86
2021/03/25 03:22:07;;;;;;;7.40;4.82;;;;;;;-0.45;52.32;93877.19;4961583;28;20042;-85
2021/03/25 03:24:33;;;;;;;6.30;4.70;;;;;;;-0.03;52.40;93935.16;4980405;28;20042;-86
2021/03/25 03:27:11;;;;;;;10.77;5.72;;;;;;;0.02;52.27;93935.28;4955983;28;20026;-86
2021/03/25 03:29:40;;;;;;;8.88;4.82;;;;;;;-0.16;52.47;93901.56;4967980;28;20033;-86
2021/03/25 03:32:35;;;;;;;7.68;4.93;;;;;;;0.05;52.07;93919.25;4971347;28;20539;-87
2021/03/25 03:35:20;;;;;;;6.20;5.28;;;;;;;0.20;52.04;93937.84;4980336;28;20057;-84
2021/03/25 03:37:49;;;;;;;8.10;5.35;;;;;;;0.22;52.76;93940.22;4969249;28;20697;-84
2021/03/25 03:40:19;;;;;;;6.82;5.10;;;;;;;0.32;53.85;93956.09;4980864;28;20123;-87
2021/03/25 03:42:49;;;;;;;6.97;5.10;;;;;;;0.21;52.53;93929.03;4980284;28;20052;-86
2021/03/25 03:45:19;;;;;;;7.03;4.50;;;;;;;0.46;51.87;93961.88;4981097;28;20136;-85
2021/03/25 03:47:57;;;;;;;6.13;4.55;;;;;;;0.37;51.73;93933.63;4982455;28;20056;-85
2021/03/25 03:50:31;;;;;;;14.13;7.00;;;;;;;0.34;51.94;93921.03;4919692;28;20049;-85
2021/03/25 03:52:57;;;;;;;11.93;6.78;;;;;;;0.56;52.12;93962.13;4981626;28;20479;-86
2021/03/25 03:55:26;;;;;;;11.48;6.82;;;;;;;0.46;51.89;93943.69;4959180;28;20042;-85
2021/03/25 03:57:57;;;;;;;13.25;9.40;;;;;;;0.51;52.21;93959.41;4972139;28;20053;-85
2021/03/25 04:00:32;;;;;;;18.25;11.80;;;;;;;0.40;52.09;93948.75;4979442;28;20066;-84
2021/03/25 04:03:33;;;;;;;15.25;9.93;;;;;;;0.34;52.45;93970.44;4980122;28;20030;-85
2021/03/25 04:06:06;;;;;;;10.95;8.35;;;;;;;0.29;53.10;93966.94;4939497;28;20107;-84
2021/03/25 04:08:41;;;;;;;10.25;7.13;;;;;;;0.15;52.99;93945.50;4982031;28;20029;-83
2021/03/25 04:11:09;;;;;;;8.52;6.20;;;;;;;0.28;52.75;93978.34;4963811;28;20529;-84
2021/03/25 04:13:48;;;;;;;8.35;6.22;;;;;;;0.19;52.79;93970.06;4977985;28;20076;-85
2021/03/25 04:16:20;;;;;;;8.90;6.50;;;;;;;-0.19;53.29;93915.00;4971614;28;20030;-85
2021/03/25 04:18:49;;;;;;;11.10;6.50;;;;;;;0.09;53.87;93976.78;4989949;28;20663;-84
2021/03/25 04:21:22;;;;;;;12.23;7.22;;;;;;;-0.34;53.77;93925.00;4952051;28;20986;-85
2021/03/25 04:23:53;;;;;;;12.65;5.78;;;;;;;-0.11;53.52;93951.06;4967919;28;20070;-83
2021/03/25 04:26:25;;;;;;;6.82;5.80;;;;;;;0.00;54.28;93984.09;4994037;28;20097;-85
2021/03/25 04:29:07;;;;;;;25.92;11.80;;;;;;;-0.27;54.73;93962.03;4988127;28;20093;-84
2021/03/25 04:31:36;;;;;;;11.63;7.88;;;;;;;-0.65;54.68;93928.53;4974020;28;20084;-84
2021/03/25 04:34:03;;;;;;;12.90;6.95;;;;;;;-0.48;55.42;93965.88;4991400;28;20042;-84
2021/03/25 04:36:32;;;;;;;10.15;5.43;;;;;;;-0.45;54.94;93961.06;4988525;28;20038;-84
2021/03/25 04:39:12;;;;;;;10.38;6.25;;;;;;;-0.52;55.69;93939.56;4990916;28;20496;-85
2021/03/25 04:41:41;;;;;;;10.05;7.32;;;;;;;-0.37;57.07;93982.53;4978929;28;20399;-85
2021/03/25 04:44:18;;;;;;;12.77;7.22;;;;;;;-0.22;59.67;94012.31;4987614;28;20772;-84
2021/03/25 04:47:14;;;;;;;10.68;7.05;;;;;;;-0.14;55.98;94016.41;4991496;28;20034;-84
2021/03/25 04:50:09;;;;;;;10.27;6.93;;;;;;;-0.31;55.85;93992.06;4987362;28;20042;-85
2021/03/25 04:52:38;;;;;;;10.02;6.57;;;;;;;-0.14;55.75;94011.22;4923883;28;20074;-84
2021/03/25 04:55:23;;;;;;;14.20;8.32;;;;;;;0.06;55.69;94029.97;4990303;28;20034;-85
2021/03/25 04:57:59;;;;;;;14.20;9.48;;;;;;;0.14;55.29;94037.50;4973206;28;20046;-84
2021/03/25 05:00:29;;;;;;;10.07;7.97;;;;;;;-0.28;55.75;93986.41;4979818;28;20364;-85
2021/03/25 05:03:04;;;;;;;14.85;9.48;;;;;;;-0.06;56.53;94008.34;4969197;28;20104;-84
2021/03/25 05:05:31;;;;;;;13.05;9.50;;;;;;;-0.34;56.16;93987.31;4980191;28;20022;-85
2021/03/25 05:08:04;;;;;;;17.05;11.80;;;;;;;-0.15;57.37;94038.22;4982917;28;20038;-85
2021/03/25 05:10:51;;;;;;;16.58;11.55;;;;;;;-0.08;57.50;94042.34;4978755;28;20064;-84
2021/03/25 05:13:35;;;;;;;16.38;10.43;;;;;;;-0.15;57.52;94027.84;4992108;28;20512;-85
2021/03/25 05:16:45;;;;;;;12.65;9.90;;;;;;;0.13;58.05;94050.69;4985336;28;20045;-85
2021/03/25 05:19:16;;;;;;;11.90;8.52;;;;;;;0.25;56.39;94039.34;4955174;28;20142;-84
2021/03/25 05:22:09;;;;;;;13.40;9.23;;;;;;;0.64;55.59;94047.63;4951543;28;20641;-84
2021/03/25 05:25:10;;;;;;;12.45;8.63;;;;;;;0.33;56.24;93996.66;4925116;28;20419;-85
2021/03/25 05:27:42;;;;;;;10.82;8.75;;;;;;;0.97;56.89;94040.16;4894177;28;20057;-84
2021/03/25 05:30:21;;;;;;;11.50;7.95;;;;;;;1.43;54.28;94012.56;4925718;28;20135;-85
2021/03/25 05:32:57;;;;;;;19.05;11.05;;;;;;;2.28;53.43;94038.84;4955517;28;20634;-85
2021/03/25 05:35:27;;;;;;;16.40;10.25;;;;;;;2.70;51.66;93979.34;4983788;28;20400;-84
2021/03/25 05:37:53;;;;;;;16.70;11.13;;;;;;;3.64;48.23;93990.72;4952241;28;20046;-85
2021/03/25 05:40:35;;;;;;;23.73;12.55;;;;;;;4.76;45.56;94032.88;4942649;28;20049;-85
2021/03/25 05:43:16;;;;;;;24.92;13.68;;;;;;;5.41;44.28;94024.81;4978082;28;20053;-84
2021/03/25 05:45:49;;;;;;;32.85;16.63;;;;;;;5.79;43.11;94012.50;4981198;28;20054;-85
2021/03/25 05:48:48;;;;;;;28.23;14.40;;;;;;;6.38;42.83;94032.25;4974058;28;20058;-85
2021/03/25 05:51:27;;;;;;;32.67;14.10;;;;;;;6.69;41.04;94021.84;4978823;28;20048;-86
2021/03/25 05:53:59;;;;;;;29.17;17.35;;;;;;;6.93;40.51;94034.28;4961814;28;20580;-85
2021/03/25 05:56:46;;;;;;;29.35;18.08;;;;;;;7.54;41.64;94036.94;4983070;28;20026;-86
2021/03/25 05:59:19;;;;;;;31.65;18.83;;;;;;;7.85;39.22;93992.97;4979536;28;20054;-86
2021/03/25 06:02:02;;;;;;;27.63;18.08;;;;;;;8.68;38.32;94030.13;4980075;28;20084;-85
2021/03/25 06:04:34;;;;;;;22.65;15.18;;;;;;;9.10;36.94;94038.31;4969236;28;20563;-85
2021/03/25 06:07:09;;;;;;;29.33;16.60;;;;;;;9.76;36.18;94032.59;4943576;28;20046;-86
2021/03/25 06:09:47;;;;;;;;;;;;;;;10.35;36.64;94039.44;4970169;28;20073;-84
2021/03/25 06:12:38;;;;;;;22.67;14.35;;;;;;;10.95;33.60;94035.28;4974265;28;19922;-85
2021/03/25 06:15:22;;;;;;;20.90;14.75;;;;;;;11.34;32.76;94040.28;4971265;28;20044;-84
2021/03/25 06:17:48;;;;;;;16.40;12.02;;;;;;;12.14;30.93;94035.59;4998562;28;20026;-84
2021/03/25 06:20:36;;;;;;;10.80;9.07;;;;;;;12.59;29.97;94025.22;4995913;28;20033;-84
2021/03/25 06:23:01;;;;;;;7.15;6.00;;;;;;;13.22;29.97;94032.44;4983634;28;20666;-85
2021/03/25 06:25:52;;;;;;;11.38;7.25;;;;;;;14.19;27.84;94023.78;4994247;28;20512;-84
2021/03/25 06:28:20;;;;;;;18.33;12.20;;;;;;;14.82;27.78;94030.63;4981972;28;20037;-83
2021/03/25 06:31:11;;;;;;;9.23;7.78;;;;;;;15.62;26.94;94032.81;4957521;28;20042;-84
2021/03/25 06:33:53;;;;;;;10.80;5.63;;;;;;;16.27;25.00;94024.56;4980435;28;20041;-84
2021/03/25 06:36:37;;;;;;;7.38;5.57;;;;;;;16.74;24.36;94033.38;4993168;28;20125;-83
2021/03/25 06:39:03;;;;;;;6.30;5.70;;;;;;;17.21;24.16;94041.31;4992412;28;20061;-83
2021/03/25 06:41:45;;;;;;;11.02;6.60;;;;;;;17.90;23.11;94041.63;4994969;28;20500;-82
2021/03/25 06:44:25;;;;;;;8.75;6.40;;;;;;;18.30;23.02;94033.84;4992132;28;20038;-81
2021/03/25 06:47:18;;;;;;;11.52;5.93;;;;;;;19.15;21.76;94039.34;4991444;28;20100;-82
2021/03/25 06:50:08;;;;;;;;;;;;;;;;;;;;;
2021/03/25 06:52:40;;;;;;;6.95;4.50;;;;;;;20.27;20.34;94008.09;4992913;28;20504;-82
2021/03/25 06:55:21;;;;;;;6.10;4.88;;;;;;;20.65;19.99;94020.97;4989940;28;20052;-81
2021/03/25 06:57:58;;;;;;;11.40;4.63;;;;;;;21.31;19.74;94025.63;4974000;28;20517;-82
2021/03/25 07:00:30;;;;;;;13.05;6.20;;;;;;;21.47;18.86;94018.31;4981193;28;20986;-82
2021/03/25 07:02:57;;;;;;;13.60;6.53;;;;;;;21.86;18.96;94025.31;4954424;28;20022;-81
2021/03/25 07:05:31;;;;;;;10.95;6.65;;;;;;;21.69;18.55;94028.41;4978909;28;20480;-81
2021/03/25 07:08:20;;;;;;;14.98;8.23;;;;;;;22.62;18.42;94037.19;4963800;28;20123;-82
2021/03/25 07:10:58;;;;;;;21.98;11.00;;;;;;;22.80;17.66;93999.78;4991526;28;20443;-81
2021/03/25 07:13:55;;;;;;;12.40;8.02;;;;;;;23.83;16.83;94036.38;4991056;28;20130;-83
2021/03/25 07:16:21;;;;;;;5.55;4.32;;;;;;;24.08;15.97;94019.38;4959405;28;20650;-82
2021/03/25 07:19:11;;;;;;;5.45;4.15;;;;;;;24.36;15.71;94037.84;4972244;28;20860;-82
2021/03/25 07:21:36;;;;;;;9.80;5.78;;;;;;;24.81;16.04;94047.56;4982040;28;20060;-82
2021/03/25 07:24:25;;;;;;;8.35;4.80;;;;;;;24.96;15.24;94035.00;4983747;28;20030;-81
2021/03/25 07:27:25;;;;;;;6.95;5.57;;;;;;;24.75;15.27;94021.25;4980822;28;20231;-82
2021/03/25 07:30:11;;;;;;;9.52;8.10;;;;;;;24.74;15.83;94047.50;4965144;28;20034;-82
2021/03/25 07:32:52;;;;;;;6.35;5.75;;;;;;;25.02;15.41;94050.47;4971214;28;20037;-82
2021/03/25 07:35:33;;;;;;;8.75;5.03;;;;;;;25.41;15.81;94031.84;4857261;28;20052;-82
2021/03/25 07:38:24;;;;;;;12.13;5.18;;;;;;;25.36;14.92;94039.56;4917410;28;21093;-82
2021/03/25 07:41:09;;;;;;;10.45;6.25;;;;;;;25.80;14.50;94029.41;4961704;28;20137;-82
2021/03/25 07:44:28;;;;;;;7.88;6.32;;;;;;;26.36;13.91;94036.28;4893252;28;20142;-82
2021/03/25 07:46:56;;;;;;;7.32;4.90;;;;;;;27.09;13.59;94024.06;4904385;28;20074;-83
2021/03/25 07:49:42;;;;;;;9.82;5.38;;;;;;;27.43;13.23;94067.84;4937762;28;20054;-84
2021/03/25 07:52:42;;;;;;;;;;;;;;;;;;;;;
2021/03/25 07:55:32;;;;;;;12.23;4.78;;;;;;;27.38;13.35;94030.25;4943482;28;20461;-83
2021/03/25 07:57:59;;;;;;;10.05;6.63;;;;;;;27.34;13.54;94023.28;4954842;28;20077;-82
2021/03/25 08:00:33;;;;;;;7.43;4.57;;;;;;;27.72;13.28;94017.03;4938092;28;20142;-82
2021/03/25 08:03:16;;;;;;;5.32;3.08;;;;;;;27.65;12.49;94016.28;4935924;28;20024;-83
2021/03/25 08:05:49;;;;;;;3.38;2.72;;;;;;;27.60;13.16;94003.88;4946865;28;20041;-84
2021/03/25 08:08:42;;;;;;;;;;;;;;;;;;;;;
2021/03/25 08:11:21;;;;;;;4.97;3.08;;;;;;;28.39;12.40;94032.38;4958981;28;20456;-83
2021/03/25 08:13:56;;;;;;;4.20;2.55;;;;;;;27.84;12.16;94024.78;4966042;28;20145;-83
2021/03/25 08:16:25;;;;;;;5.13;3.10;;;;;;;28.51;12.20;94050.94;4978274;28;20066;-83
2021/03/25 08:19:18;;;;;;;4.75;2.90;;;;;;;29.19;11.51;94045.91;4982778;28;20056;-83
2021/03/25 08:21:58;;;;;;;4.22;3.45;;;;;;;29.11;11.79;94017.19;4957678;28;20100;-83
2021/03/25 08:24:54;;;;;;;6.88;3.65;;;;;;;28.54;11.80;94042.00;4972669;28;20045;-83
2021/03/25 08:27:27;;;;;;;6.25;3.38;;;;;;;27.42;12.14;94043.81;4991593;28;20041;-82
2021/03/25 08:30:28;;;;;;;3.15;2.83;;;;;;;28.75;12.03;94041.91;4990731;28;21045;-82
2021/03/25 08:33:31;;;;;;;5.15;2.90;;;;;;;29.60;11.56;94040.53;4977422;28;20476;-82
2021/03/25 08:36:22;;;;;;;5.22;2.97;;;;;;;30.19;10.38;94040.34;4979958;28;20053;-84
2021/03/25 08:39:01;;;;;;;3.80;2.80;;;;;;;30.47;10.08;94024.44;4978968;28;20030;-83
2021/03/25 08:41:49;;;;;;;3.50;2.60;;;;;;;30.49;9.69;94032.22;4988049;28;20046;-83
2021/03/25 08:44:33;;;;;;;2.40;2.20;;;;;;;31.48;9.71;94040.94;4952157;28;20194;-83
2021/03/25 08:47:23;;;;;;;3.10;2.37;;;;;;;31.37;10.05;94035.66;4979084;28;20042;-83
2021/03/25 08:50:03;;;;;;;2.38;2.17;;;;;;;30.23;10.17;94033.69;4974521;28;21170;-83
2021/03/25 08:52:41;;;;;;;12.02;3.17;;;;;;;30.18;10.44;93987.00;4986812;28;20057;-85
2021/03/25 08:55:26;;;;;;;3.53;2.85;;;;;;;29.78;10.29;94032.19;4976983;28;20038;-83
2021/03/25 08:57:56;;;;;;;4.65;2.97;;;;;;;29.72;11.31;94020.94;4990019;28;20133;-82
2021/03/25 09:00:32;;;;;;;7.75;5.38;;;;;;;28.52;10.84;94019.88;4963950;28;20046;-83
2021/03/25 09:03:10;;;;;;;3.70;3.40;;;;;;;26.80;11.81;94030.59;4961754;28;20486;-83
2021/03/25 09:05:42;;;;;;;3.10;2.65;;;;;;;26.38;11.92;94027.78;4992439;28;20496;-82
2021/03/25 09:08:19;;;;;;;3.50;3.20;;;;;;;25.81;12.22;94028.28;4969202;28;20416;-82
2021/03/25 09:10:49;;;;;;;6.25;3.25;;;;;;;25.54;12.18;94039.69;4971586;28;20108;-82
2021/03/25 09:13:19;;;;;;;3.78;3.45;;;;;;;22.40;13.95;94054.06;4988876;28;20049;-82
2021/03/25 09:15:49;;;;;;;4.38;3.78;;;;;;;20.86;15.00;94048.38;4967892;28;20477;-81
2021/03/25 09:18:29;;;;;;;8.23;4.65;;;;;;;19.87;16.47;94021.56;4944795;28;20050;-81
2021/03/25 09:21:25;;;;;;;7.28;5.05;;;;;;;20.50;16.42;94051.28;4970639;28;20087;-81
2021/03/25 09:24:02;;;;;;;6.05;4.20;;;;;;;19.56;16.51;94062.41;4950519;28;20498;-81
2021/03/25 09:26:33;;;;;;;7.40;4.55;;;;;;;18.99;16.49;94051.81;4967960;28;20112;-82
2021/03/25 09:29:23;;;;;;;7.32;4.47;;;;;;;19.32;17.03;94049.81;4979229;28;20046;-82
2021/03/25 09:31:54;;;;;;;7.72;4.65;;;;;;;19.70;16.95;94051.31;4978554;28;20504;-82
2021/03/25 09:34:33;;;;;;;5.50;4.35;;;;;;;19.99;17.48;94042.22;4967085;28;20370;-82
2021/03/25 09:37:04;;;;;;;4.97;4.53;;;;;;;19.79;17.75;94057.34;4943476;28;20050;-82
2021/03/25 09:39:37;;;;;;;14.45;9.10;;;;;;;19.46;16.07;94039.53;4977252;28;25552;-82
2021/03/25 09:42:18;;;;;;;11.88;5.38;;;;;;;19.13;16.81;94059.53;4966246;28;20355;-82
2021/03/25 09:44:44;;;;;;;6.93;4.93;;;;;;;18.65;17.81;94030.81;4957423;28;20180;-82
2021/03/25 09:47:30;;;;;;;9.35;4.82;;;;;;;18.99;17.11;94062.53;4959422;28;20424;-82
2021/03/25 09:50:34;;;;;;;7.47;4.63;;;;;;;18.85;17.27;94062.88;4952125;28;20613;-82
2021/03/25 09:53:11;;;;;;;6.78;5.03;;;;;;;19.19;17.61;94056.28;4927255;28;20038;-83
2021/03/25 09:55:38;;;;;;;10.00;6.18;;;;;;;19.50;17.98;94014.75;4914332;28;20043;-82
2021/03/25 09:58:41;;;;;;;9.43;6.78;;;;;;;19.48;18.20;94031.16;4979220;28;20532;-82
2021/03/25 10:01:10;;;;;;;8.20;5.88;;;;;;;19.37;18.47;94060.28;4973667;28;20116;-81
2021/03/25 10:04:05;;;;;;;11.40;5.50;;;;;;;18.67;17.74;94068.75;4980440;28;20134;-83
2021/03/25 10:06:57;;;;;;;9.40;5.80;;;;;;;18.53;18.28;94072.50;4980849;28;20045;-82
2021/03/25 10:10:00;;;;;;;12.55;7.93;;;;;;;18.70;18.65;94070.75;4982495;28;20528;-82
2021/03/25 10:12:48;;;;;;;6.72;5.55;;;;;;;17.17;18.00;94041.19;4960459;28;20037;-82
2021/03/25 10:16:06;;;;;;;8.98;5.65;;;;;;;17.56;19.10;94076.59;4984102;28;20497;-82
2021/03/25 10:18:37;;;;;;;9.55;5.68;;;;;;;17.58;19.74;94072.50;4969202;28;20512;-82
2021/03/25 10:21:08;;;;;;;6.70;5.22;;;;;;;17.43;19.89;94069.63;4946021;28;20034;-82
2021/03/25 10:23:36;;;;;;;8.15;5.65;;;;;;;17.82;19.31;94071.09;4966453;28;20053;-82
2021/03/25 10:26:08;;;;;;;8.80;5.47;;;;;;;17.79;19.94;94077.13;4978530;28;20573;-82
2021/03/25 10:29:02;;;;;;;10.23;5.78;;;;;;;17.44;20.03;94077.31;4978244;28;20054;-81
2021/03/25 10:31:55;;;;;;;6.40;5.38;;;;;;;16.65;21.45;94023.84;4989051;28;20053;-82
2021/03/25 10:34:38;;;;;;;7.57;5.03;;;;;;;16.29;22.51;94074.91;4964437;28;20239;-82
2021/03/25 10:37:27;;;;;;;6.22;4.20;;;;;;;15.41;22.59;94071.78;4987354;28;20140;-81
2021/03/25 10:40:18;;;;;;;8.65;4.78;;;;;;;15.54;22.44;94068.25;4991712;28;20071;-82
2021/03/25 10:42:57;;;;;;;8.63;4.82;;;;;;;15.37;22.74;94030.91;4969668;28;20044;-83
2021/03/25 10:45:24;;;;;;;7.03;5.20;;;;;;;15.18;22.49;94016.00;4976569;28;20038;-82
2021/03/25 10:48:01;;;;;;;6.28;3.90;;;;;;;15.61;22.53;94071.22;4985576;28;20241;-82
2021/03/25 10:50:35;;;;;;;10.25;6.15;;;;;;;15.86;23.04;94048.31;4992688;28;20028;-82
2021/03/25 10:53:03;;;;;;;6.07;3.75;;;;;;;15.55;22.47;94048.47;4972700;28;20431;-82
2021/03/25 10:55:39;;;;;;;8.75;4.65;;;;;;;15.72;22.40;94071.69;4991598;28;20203;-80
2021/03/25 10:58:06;;;;;;;7.68;4.80;;;;;;;15.55;22.96;94049.25;4992459;28;20054;-83
2021/03/25 11:03:37;;;;;;;5.95;4.00;;;;;;;15.21;22.59;94067.03;4961044;28;20555;-82
2021/03/25 11:06:04;;;;;;;5.25;3.67;;;;;;;14.81;23.64;94042.38;4971071;28;20025;-84
2021/03/25 11:08:35;;;;;;;8.63;4.72;;;;;;;14.77;24.78;94025.44;4995467;28;20026;-80
2021/03/25 11:11:13;;;;;;;7.65;4.38;;;;;;;15.17;23.93;94045.59;4959722;28;20412;-81
2021/03/25 11:13:43;;;;;;;6.40;4.88;;;;;;;15.07;23.49;94064.50;4967045;28;20038;-82
2021/03/25 11:16:19;;;;;;;10.65;8.05;;;;;;;14.86;21.89;94056.31;4964216;28;20053;-81
2021/03/25 11:19:07;;;;;;;5.15;4.55;;;;;;;14.51;21.78;94030.69;4950666;28;20050;-82
2021/03/25 11:21:42;;;;;;;5.75;4.90;;;;;;;14.35;23.33;94058.72;4968071;28;20046;-81
2021/03/25 11:24:08;;;;;;;;;;;;;;;14.45;23.19;94058.50;4963487;28;20281;-81
2021/03/25 11:26:40;;;;;;;6.80;4.82;;;;;;;14.30;24.31;94027.75;4968072;28;19949;-82
2021/03/25 11:40:32;;;;;;;;;;;;;;;;;;;;;
2021/03/25 12:13:28;;;;;;;;;;;;;;;13.48;25.36;94057.38;6000467;22;5807717;-84
2021/03/25 12:16:10;;;;;;;8.75;5.78;;;;;;;13.49;25.24;94027.06;6137636;22;19943;-83
2021/03/25 12:18:41;;;;;;;4.70;4.20;;;;;;;13.49;25.30;94034.25;6112179;23;20492;-83
2021/03/25 12:21:26;;;;;;;;;;;;;;;;;;;;;
2021/03/25 12:24:44;;;;;;;8.15;4.75;;;;;;;12.90;23.36;94034.13;6045885;23;20047;-83
2021/03/25 12:27:41;;;;;;;5.72;4.43;;;;;;;12.66;25.84;94056.66;5989083;23;20025;-86
2021/03/25 12:30:07;;;;;;;8.88;4.68;;;;;;;12.53;25.33;93995.38;5981510;23;20010;-83
2021/03/25 12:32:32;;;;;;;5.03;4.53;;;;;;;12.92;27.27;94010.75;6088128;23;20372;-82
2021/03/25 12:35:01;;;;;;;11.95;6.82;;;;;;;13.28;25.60;94050.63;6122255;23;20475;-82
2021/03/25 12:37:26;;;;;;;6.30;5.20;;;;;;;13.17;26.34;93998.84;6129057;23;20021;-82
2021/03/25 12:39:53;;;;;;;6.50;4.85;;;;;;;12.80;25.77;93991.16;6143696;23;20010;-83
2021/03/25 12:42:19;;;;;;;4.75;3.97;;;;;;;12.88;26.19;93977.19;6144076;23;20520;-83
2021/03/25 12:44:45;;;;;;;6.25;4.35;;;;;;;12.81;26.14;93998.78;6149012;23;20005;-83
2021/03/25 12:47:11;;;;;;;5.28;4.35;;;;;;;12.93;25.09;93987.69;6146324;23;20096;-82
2021/03/25 12:49:39;;;;;;;5.68;4.90;;;;;;;13.11;26.38;93994.72;6142029;23;20532;-82
2021/03/25 12:52:08;;;;;;;8.70;3.88;;;;;;;13.37;24.46;94032.91;6145008;23;20017;-83
2021/03/25 12:54:33;;;;;;;8.30;5.82;;;;;;;13.08;24.58;93965.34;6106598;23;20013;-84
2021/03/25 12:57:04;;;;;;;114.95;53.10;;;;;;;13.04;23.79;93978.44;6109267;23;20529;-83
2021/03/25 12:59:33;;;;;;;6.55;4.43;;;;;;;12.67;25.34;93965.41;6138691;23;20016;-84
2021/03/25 13:01:58;;;;;;;5.95;5.38;;;;;;;12.78;25.16;93972.88;6103253;23;20448;-85
2021/03/25 13:04:26;;;;;;;6.53;4.93;;;;;;;12.93;23.71;93977.84;6067938;23;20358;-82
2021/03/25 13:06:55;;;;;;;5.50;4.68;;;;;;;12.75;24.82;94004.50;6058626;23;20042;-83
2021/03/25 13:09:23;;;;;;;10.23;5.88;;;;;;;12.41;24.36;93973.13;6081080;23;20017;-83
2021/03/25 13:11:49;;;;;;;8.20;5.85;;;;;;;12.19;26.36;93989.69;6132918;23;20009;-81